createdAt,value
2023-03-06T00:01:48.695Z,32512.33
2023-03-06T00:06:54.129Z,31864.17
2023-03-06T00:11:57.613Z,30738.08
2023-03-06T00:17:01.057Z,27855.55
2023-03-06T00:22:05.950Z,25229.91
2023-03-06T00:27:10.017Z,17337.24
2023-03-06T00:32:18.963Z,18657.68
2023-03-06T00:37:25.377Z,20484.21
2023-03-06T00:42:32.778Z,21096.75
2023-03-06T00:47:36.279Z,22849.00
2023-03-06T00:52:42.070Z,23732.44
2023-03-06T00:57:48.671Z,22451.24
2023-03-06T01:02:53.702Z,22296.83
2023-03-06T01:08:00.290Z,22271.42
2023-03-06T01:13:06.562Z,24905.23
2023-03-06T01:18:12.431Z,23740.85
2023-03-06T01:23:19.301Z,23991.27
2023-03-06T01:28:22.881Z,24350.23
2023-03-06T01:33:28.563Z,26162.86
2023-03-06T01:38:36.115Z,24995.77
2023-03-06T01:43:42.306Z,26083.18
2023-03-06T01:48:49.703Z,25756.61
2023-03-06T01:53:59.292Z,27167.54
2023-03-06T01:59:03.737Z,27074.65
2023-03-06T02:04:10.217Z,27346.48
2023-03-06T02:09:15.631Z,26991.65
2023-03-06T02:14:21.266Z,26641.07
2023-03-06T02:19:34.034Z,27306.20
2023-03-06T02:24:45.245Z,27482.06
2023-03-06T02:29:50.232Z,26188.27
2023-03-06T02:34:58.334Z,25113.65
2023-03-06T02:40:12.269Z,26560.32
2023-03-06T02:45:23.217Z,26097.06
2023-03-06T02:50:28.967Z,27169.17
2023-03-06T02:55:32.728Z,27378.65
2023-03-06T03:00:40.489Z,27113.62
2023-03-06T03:05:46.144Z,24948.51
2023-03-06T03:10:57.410Z,24975.33
2023-03-06T03:16:09.475Z,22446.26
2023-03-06T03:21:13.977Z,19806.14
2023-03-06T03:26:22.669Z,20295.19
2023-03-06T03:31:35.339Z,19956.79
2023-03-06T03:36:42.417Z,21955.79
2023-03-06T03:41:49.360Z,21286.40
2023-03-06T03:46:54.608Z,20051.90
2023-03-06T03:51:59.763Z,21080.52
2023-03-06T03:57:06.355Z,24505.16
2023-03-06T04:02:14.929Z,26320.21
2023-03-06T04:07:27.620Z,25619.09
2023-03-06T04:12:33.638Z,24926.75
2023-03-06T04:17:41.805Z,25395.38
2023-03-06T04:22:53.206Z,26517.03
2023-03-06T04:27:59.624Z,25484.72
2023-03-06T04:33:08.283Z,25663.06
2023-03-06T04:38:14.877Z,25453.24
2023-03-06T04:43:18.573Z,25256.26
2023-03-06T04:48:25.591Z,25971.09
2023-03-06T04:53:29.097Z,25427.75
2023-03-06T04:58:32.553Z,26201.75
2023-03-06T05:03:39.782Z,27409.68
2023-03-06T05:08:43.214Z,27847.41
2023-03-06T05:13:46.705Z,28786.51
2023-03-06T05:18:56.238Z,27270.69
2023-03-06T05:23:59.726Z,24517.60
2023-03-06T05:29:03.185Z,25555.89
2023-03-06T05:34:14.176Z,25697.92
2023-03-06T05:39:17.969Z,26423.97
2023-03-06T05:44:24.546Z,27428.47
2023-03-06T05:49:34.001Z,26941.00
2023-03-06T05:54:38.135Z,27714.24
2023-03-06T05:59:41.537Z,28145.40
2023-03-06T06:04:51.190Z,28917.56
2023-03-06T06:09:57.960Z,29203.50
2023-03-06T06:15:01.455Z,28973.54
2023-03-06T06:20:10.411Z,28935.66
2023-03-06T06:25:14.096Z,28528.59
2023-03-06T06:30:20.363Z,27516.79
2023-03-06T06:35:25.177Z,23855.06
2023-03-06T06:40:31.012Z,13290.64
2023-03-06T06:45:34.545Z,30928.92
2023-03-06T06:50:39.466Z,26513.29
2023-03-06T06:55:43.062Z,24843.96
2023-03-06T07:03:45.782Z,33.81
2023-03-06T07:08:51.613Z,34.85
2023-03-06T07:13:56.124Z,33.84
2023-03-06T07:19:03.064Z,35.85
2023-03-06T07:24:11.918Z,34.64
2023-03-06T07:29:15.571Z,35.09
2023-03-06T07:34:22.731Z,33.78
2023-03-06T07:39:28.077Z,33.85
2023-03-06T07:44:31.880Z,33.25
2023-03-06T07:49:36.729Z,37.07
2023-03-06T07:54:40.236Z,38.52
2023-03-06T07:59:43.670Z,36.51
2023-03-06T08:04:54.382Z,33.77
2023-03-06T08:10:02.636Z,33.77
2023-03-06T08:15:10.169Z,34.29
2023-03-06T08:20:18.679Z,36.52
2023-03-06T08:25:22.141Z,33.38
2023-03-06T08:30:25.653Z,31.08
2023-03-06T08:35:30.637Z,31.44
2023-03-06T08:40:34.577Z,31.78
2023-03-06T08:45:38.082Z,32.20
2023-03-06T08:50:45.332Z,30.80
2023-03-06T08:55:48.989Z,29.47
2023-03-06T09:00:52.701Z,28.40
2023-03-06T09:05:57.511Z,38.81
2023-03-06T09:11:06.006Z,30.90
2023-03-06T09:16:09.688Z,27.25
2023-03-06T09:21:14.627Z,24.14
2023-03-06T09:26:21.147Z,26.17
2023-03-06T09:31:27.580Z,21.75
2023-03-06T09:36:49.338Z,20.00
2023-03-06T09:41:58.670Z,19.69
2023-03-06T09:47:27.638Z,22.36
2023-03-06T09:52:37.555Z,18.93
2023-03-06T09:57:44.091Z,18.76
2023-03-06T10:02:56.997Z,18.52
2023-03-06T10:08:12.530Z,18.05
2023-03-06T10:13:22.050Z,16.58
2023-03-06T10:18:25.507Z,18.97
2023-03-06T10:23:43.536Z,18.23
2023-03-06T10:28:58.474Z,15.59
2023-03-06T10:34:13.596Z,16.77
2023-03-06T10:39:22.166Z,16.86
2023-03-06T10:44:26.042Z,15.59
2023-03-06T10:49:35.009Z,18.40
2023-03-06T10:54:41.048Z,17.71
2023-03-06T10:59:52.171Z,17.34
2023-03-06T11:04:57.264Z,20.92
2023-03-06T11:10:08.897Z,64.50
2023-03-06T11:15:21.186Z,33.48
2023-03-06T11:20:26.572Z,29.18
2023-03-06T11:25:35.249Z,36.04
2023-03-06T11:30:46.376Z,23.71
2023-03-06T11:35:57.293Z,28.16
2023-03-06T11:41:09.333Z,34.02
2023-03-06T11:46:19.845Z,48.96
2023-03-06T11:51:26.466Z,104.39
2023-03-06T11:56:45.513Z,34.35
2023-03-06T12:01:56.481Z,24.55
2023-03-06T12:07:11.836Z,17.21
2023-03-06T12:12:31.887Z,20.64
2023-03-06T12:17:50.943Z,14.01
2023-03-06T12:23:02.468Z,15.76
2023-03-06T12:28:33.007Z,14.01
2023-03-06T12:33:44.718Z,15.09
2023-03-06T12:39:01.509Z,16.14
2023-03-06T12:44:35.316Z,17.31
2023-03-06T12:49:42.259Z,19.09
2023-03-06T12:54:46.527Z,17.93
2023-03-06T12:59:56.352Z,15.81
2023-03-06T13:05:16.796Z,14.79
2023-03-06T13:10:23.644Z,16.82
2023-03-06T13:15:38.351Z,14.08
2023-03-06T13:20:45.203Z,15.20
2023-03-06T13:25:50.312Z,17.30
2023-03-06T13:30:56.570Z,18.77
2023-03-06T13:36:00.928Z,19.71
2023-03-06T13:41:23.032Z,21.36
2023-03-06T13:46:30.988Z,24.00
2023-03-06T13:51:39.417Z,26.69
2023-03-06T13:56:59.988Z,26.74
2023-03-06T14:02:20.215Z,28.68
2023-03-06T14:07:28.223Z,29.10
2023-03-06T14:12:34.958Z,29.61
2023-03-06T14:17:49.882Z,30.83
2023-03-06T14:22:53.311Z,32.18
2023-03-06T14:28:05.716Z,32.54
2023-03-06T14:33:27.780Z,44.48
2023-03-06T14:38:37.810Z,34.86
2023-03-06T14:43:41.221Z,34.51
2023-03-06T14:48:50.780Z,34.15
2023-03-06T14:53:55.394Z,34.73
2023-03-06T14:59:01.325Z,34.56
2023-03-06T15:04:14.114Z,34.83
2023-03-06T15:09:21.610Z,36.36
2023-03-06T15:14:31.101Z,35.51
2023-03-06T15:19:42.940Z,36.08
2023-03-06T15:24:48.732Z,37.09
2023-03-06T15:29:55.192Z,35.83
2023-03-06T15:35:25.588Z,36.09
2023-03-06T15:40:32.034Z,36.33
2023-03-06T15:45:37.785Z,37.38
2023-03-06T15:50:43.701Z,51.80
2023-03-06T15:55:48.910Z,39.34
2023-03-06T16:00:52.534Z,39.66
2023-03-06T16:05:56.053Z,42.30
2023-03-06T16:11:00.942Z,41.31
2023-03-06T16:16:07.637Z,40.79
2023-03-06T16:21:15.083Z,40.74
2023-03-06T16:26:30.175Z,40.95
2023-03-06T16:31:33.830Z,41.64
2023-03-06T16:36:37.399Z,41.42
2023-03-06T16:41:42.329Z,41.30
2023-03-06T16:46:47.272Z,43.13
2023-03-06T16:51:50.876Z,42.32
2023-03-06T16:56:56.098Z,43.64
2023-03-06T17:02:00.101Z,53.37
2023-03-06T17:07:04.549Z,44.44
2023-03-06T17:12:10.074Z,45.46
2023-03-06T17:17:13.577Z,43.74
2023-03-06T17:22:17.982Z,43.01
2023-03-06T17:27:24.420Z,42.03
2023-03-06T17:32:32.443Z,41.72
2023-03-06T17:37:38.104Z,40.90
2023-03-06T17:42:43.022Z,40.68
2023-03-06T17:47:48.968Z,40.06
2023-03-06T17:52:56.136Z,38.90
2023-03-06T17:58:14.504Z,36.62
2023-03-06T18:03:53.066Z,36.25
2023-03-06T18:09:07.947Z,36.34
2023-03-06T18:14:11.574Z,37.94
2023-03-06T18:19:17.800Z,34.41
2023-03-06T18:24:23.443Z,36.45
2023-03-06T18:29:26.896Z,37.79
2023-03-06T18:34:30.520Z,31.19
2023-03-06T18:39:35.344Z,32.04
2023-03-06T18:44:41.381Z,35.79
2023-03-06T18:49:49.415Z,36.13
2023-03-06T18:54:54.300Z,33.28
2023-03-06T18:59:57.774Z,33.78
2023-03-06T19:05:01.227Z,33.74
2023-03-06T19:10:06.686Z,34.36
2023-03-06T19:15:12.432Z,34.65
2023-03-06T19:20:18.367Z,33.97
2023-03-06T19:25:26.304Z,32.21
2023-03-06T19:30:30.098Z,31.22
2023-03-06T19:35:36.165Z,30.86
2023-03-06T19:40:41.018Z,29.17
2023-03-06T19:45:45.063Z,29.14
2023-03-06T19:50:48.658Z,29.09
2023-03-06T19:56:07.226Z,28.46
2023-03-06T20:01:12.050Z,27.88
2023-03-06T20:06:19.877Z,26.78
2023-03-06T20:11:26.440Z,26.46
2023-03-06T20:16:30.750Z,26.90
2023-03-06T20:21:37.944Z,27.10
2023-03-06T20:26:46.337Z,27.38
2023-03-06T20:31:50.114Z,27.39
2023-03-06T20:36:53.574Z,26.91
2023-03-06T20:41:59.147Z,25.75
2023-03-06T20:47:02.660Z,24.93
2023-03-06T20:52:06.205Z,23.37
2023-03-06T20:57:14.281Z,21.82
2023-03-06T21:02:18.007Z,21.02
2023-03-06T21:07:24.712Z,21.51
2023-03-06T21:12:29.884Z,20.33
2023-03-06T21:17:33.347Z,20.67
2023-03-06T21:22:38.719Z,21.67
2023-03-06T21:27:43.823Z,21.75
2023-03-06T21:32:47.414Z,23.14
2023-03-06T21:37:50.994Z,22.36
2023-03-06T21:42:55.764Z,23.00
2023-03-06T21:48:01.861Z,23.35
2023-03-06T21:53:05.300Z,24.82
2023-03-06T21:58:10.180Z,25.45
2023-03-06T22:03:13.585Z,26.69
2023-03-06T22:08:21.182Z,28.46
2023-03-06T22:13:26.057Z,29.04
2023-03-06T22:18:29.601Z,31.08
2023-03-06T22:23:32.971Z,32.00
2023-03-06T22:28:37.857Z,32.91
2023-03-06T22:33:41.980Z,34.36
2023-03-06T22:38:46.842Z,35.15
2023-03-06T22:43:55.999Z,36.61
2023-03-06T22:49:02.674Z,36.38
2023-03-06T22:54:06.666Z,36.76
2023-03-06T22:59:11.400Z,37.84
2023-03-06T23:04:15.019Z,38.55
2023-03-06T23:09:22.525Z,38.60
2023-03-06T23:14:49.635Z,38.79
2023-03-06T23:20:13.349Z,36.41
2023-03-06T23:25:37.618Z,36.73
2023-03-06T23:30:42.936Z,35.85
2023-03-06T23:35:46.749Z,36.02
2023-03-06T23:40:50.428Z,37.23
2023-03-06T23:45:55.342Z,40.80
2023-03-06T23:51:06.127Z,42.58
2023-03-06T23:56:12.482Z,43.30
